Logan Cache Airport
KLGU : now visible

Airfield :











YOU CAN JOIN US ON...

 
LOGIN :

Register | Disclaimer

   EN    FR    IT 

 









Legend :    VFR   Marginal VFR   IFR   Intensive IFR   Very Intensive IFR
Visi :
Ceiling :
>= 8 km
>= 3000ft
5 to 8 km
1000 to 3000 ft
1500m to 5 km
500 to 1000 ft
800 to 1500m
200 to 500 ft
< 800m
< 200 ft
Symbols :   Thunderstorms  Fog  Heavy snow  Heavy precipitations  Wind > 20 kt






- Airport Elevation : 4457 ft


KLGU - Logan Cache

CURRENT METAR :
  • 021212Z AUTO 04005KT 3/4SM -SN BR VV009 M04/M05 A2990 RMK AO2 P0000 T10441050 $

EXPIRED METARs :
  • 021205Z AUTO 03007KT 3/4SM -SN BR VV010 M04/M05 A2990 RMK AO2 P0000 T10441050 $
  • 021116Z AUTO 36011KT 1 1/4SM BR OVC010 M04/M05 A2985 RMK AO2 T10391050 PWINO FZRANO $
  • 021051Z AUTO 35007KT 1/2SM FZFG VV006 M03/M04 A2984 RMK AO2 PRESRR SLP108 P0003 T10331039 PWINO FZRANO $
  • 021039Z AUTO 33006KT 3/4SM BR VV006 M03/M03 A2982 RMK AO2 P0003 T10331033 PWINO FZRANO $
  • 020956Z AUTO 01011KT 1/2SM FZFG VV005 M03/M03 A2979 RMK AO2 P0001 T10281033 PWINO FZRANO $
  • 020951Z AUTO 36010KT 1/2SM FZFG VV004 M03/M03 A2979 RMK AO2 SNEMM SLP091 P0001 T10281033 PWINO FZRANO $

TAF KLGU
Valid from the 02 at 12:00 until the 03 at 12:00 UTC


021138Z 0212/0312 36010KT 2SM -SN BR SCT005 BKN010
FM021500 26006KT P6SM BKN050
FM022100 VRB06KT P6SM SCT100
KZLC FIR / North America



MET'MAP, your aeronautical weather chart ! - Copyright ORBIFLY December 2007 - Disclaimer

ORBIFLY MET'MAP TEAM :

Programming & Development : Alexandra Zaïnal
Original concept : Baudouin d'Aumeries
Technical & hardware support : Manuel Goepfert
Assistance : Marc-Olivier Méhu




SOURCES & CREDITS :

   NOAA       Earth
Advisory